createdAt,value
2019-02-16T20:51:51.121Z,25.27
2019-02-16T20:54:21.364Z,23.65
2019-02-16T20:56:51.377Z,25.17
2019-02-16T20:59:27.358Z,22.80
2019-02-16T21:01:57.323Z,21.48
2019-02-16T21:04:39.387Z,20.72
2019-02-16T21:07:15.195Z,21.12
2019-02-16T21:09:45.214Z,24.92
2019-02-16T21:12:21.390Z,41.50
2019-02-16T21:14:51.471Z,48.85
2019-02-16T21:17:21.912Z,50.17
2019-02-16T21:20:04.220Z,50.20
2019-02-16T21:22:37.110Z,58.80
2019-02-16T21:25:10.887Z,80.72
2019-02-16T21:27:57.729Z,90.65
2019-02-16T21:30:24.370Z,87.95
2019-02-16T21:33:00.318Z,81.57
2019-02-16T21:35:42.154Z,99.15
2019-02-16T21:38:14.987Z,104.47
2019-02-16T21:40:45.217Z,98.15
2019-02-16T21:43:21.206Z,93.70
2019-02-16T21:46:20.987Z,66.07
2019-02-16T21:48:52.168Z,57.80
2019-02-16T21:51:23.240Z,64.62
2019-02-16T21:54:10.434Z,79.95
2019-02-16T21:56:53.849Z,91.08
2019-02-16T21:59:33.943Z,67.05
2019-02-16T22:02:16.905Z,52.15
2019-02-16T22:04:48.024Z,56.60
2019-02-16T22:07:19.231Z,66.12
2019-02-16T22:09:56.269Z,56.77
2019-02-16T22:12:30.605Z,60.83
2019-02-16T22:15:02.333Z,89.72
2019-02-16T22:17:31.604Z,91.85
2019-02-16T22:20:01.097Z,63.45
2019-02-16T22:22:30.599Z,50.88
2019-02-16T22:25:00.183Z,38.67
2019-02-16T22:27:29.806Z,40.48
2019-02-16T22:29:59.367Z,37.63
2019-02-16T22:32:28.999Z,40.88
2019-02-16T22:34:58.667Z,37.48
2019-02-16T22:37:28.255Z,45.25
2019-02-16T22:39:57.757Z,40.90
2019-02-16T22:42:27.358Z,42.03
2019-02-16T22:44:57.120Z,38.78
2019-02-16T22:47:26.822Z,40.25
2019-02-16T22:49:56.419Z,33.40
2019-02-16T22:52:25.858Z,27.90
2019-02-16T22:54:55.568Z,25.60
2019-02-16T22:57:25.138Z,30.02
2019-02-16T22:59:54.889Z,30.00
2019-02-16T23:02:24.391Z,32.08
2019-02-16T23:04:53.904Z,32.28
2019-02-16T23:07:23.497Z,29.30
2019-02-16T23:09:53.204Z,29.80
2019-02-16T23:12:22.624Z,28.75
2019-02-16T23:14:52.285Z,28.27
2019-02-16T23:17:21.940Z,32.80
2019-02-16T23:19:51.652Z,30.15
2019-02-16T23:22:21.165Z,31.50
2019-02-16T23:24:50.764Z,33.95
2019-02-16T23:27:20.361Z,31.95
2019-02-16T23:29:49.842Z,31.52
2019-02-16T23:32:19.259Z,30.62
2019-02-16T23:34:48.671Z,30.77
2019-02-16T23:37:18.438Z,27.27
2019-02-16T23:39:47.870Z,30.65
2019-02-16T23:42:17.494Z,31.20
2019-02-16T23:44:47.104Z,31.00
2019-02-16T23:47:16.744Z,29.40
2019-02-16T23:49:46.214Z,28.38
2019-02-16T23:52:15.859Z,28.50
2019-02-16T23:54:45.446Z,27.75
2019-02-16T23:57:15.057Z,24.57
2019-02-16T23:59:44.493Z,25.43
